sensor_id;sensor_type;location;lat;lon;timestamp;P1;durP1;ratioP1;P2;durP2;ratioP2
79414;SDS011;68864;44.972;19.612;2024-02-26T00:02:12;17.40;;;9.70;;
79414;SDS011;68864;44.972;19.612;2024-02-26T00:04:39;20.15;;;10.85;;
79414;SDS011;68864;44.972;19.612;2024-02-26T00:07:06;16.25;;;9.35;;
79414;SDS011;68864;44.972;19.612;2024-02-26T00:09:33;17.13;;;9.00;;
79414;SDS011;68864;44.972;19.612;2024-02-26T00:12:02;16.73;;;9.50;;
79414;SDS011;68864;44.972;19.612;2024-02-26T00:14:30;18.17;;;9.65;;
79414;SDS011;68864;44.972;19.612;2024-02-26T00:16:57;18.35;;;10.57;;
79414;SDS011;68864;44.972;19.612;2024-02-26T00:19:25;21.40;;;12.02;;
79414;SDS011;68864;44.972;19.612;2024-02-26T00:21:52;21.20;;;12.02;;
79414;SDS011;68864;44.972;19.612;2024-02-26T00:24:20;24.13;;;13.02;;
79414;SDS011;68864;44.972;19.612;2024-02-26T00:26:47;29.40;;;16.75;;
79414;SDS011;68864;44.972;19.612;2024-02-26T00:29:18;26.88;;;13.95;;
79414;SDS011;68864;44.972;19.612;2024-02-26T00:31:45;20.95;;;12.20;;
79414;SDS011;68864;44.972;19.612;2024-02-26T00:34:12;19.45;;;11.27;;
79414;SDS011;68864;44.972;19.612;2024-02-26T00:36:40;17.65;;;9.57;;
79414;SDS011;68864;44.972;19.612;2024-02-26T00:39:07;14.55;;;8.20;;
79414;SDS011;68864;44.972;19.612;2024-02-26T00:41:37;13.80;;;7.60;;
79414;SDS011;68864;44.972;19.612;2024-02-26T00:44:05;13.10;;;7.50;;
79414;SDS011;68864;44.972;19.612;2024-02-26T00:46:32;14.15;;;6.70;;
79414;SDS011;68864;44.972;19.612;2024-02-26T00:48:59;10.95;;;7.50;;
79414;SDS011;68864;44.972;19.612;2024-02-26T00:51:26;12.77;;;7.15;;
79414;SDS011;68864;44.972;19.612;2024-02-26T00:53:55;14.88;;;8.05;;
79414;SDS011;68864;44.972;19.612;2024-02-26T00:56:22;14.05;;;6.53;;
79414;SDS011;68864;44.972;19.612;2024-02-26T00:58:49;13.43;;;7.07;;
79414;SDS011;68864;44.972;19.612;2024-02-26T01:01:16;14.38;;;7.28;;
79414;SDS011;68864;44.972;19.612;2024-02-26T01:03:43;12.95;;;6.82;;
79414;SDS011;68864;44.972;19.612;2024-02-26T01:06:10;13.48;;;7.10;;
79414;SDS011;68864;44.972;19.612;2024-02-26T01:08:37;13.45;;;7.20;;
79414;SDS011;68864;44.972;19.612;2024-02-26T01:13:32;18.85;;;10.30;;
79414;SDS011;68864;44.972;19.612;2024-02-26T01:15:59;19.48;;;11.07;;
79414;SDS011;68864;44.972;19.612;2024-02-26T01:18:27;16.48;;;8.82;;
79414;SDS011;68864;44.972;19.612;2024-02-26T01:20:53;16.08;;;7.70;;
79414;SDS011;68864;44.972;19.612;2024-02-26T01:23:20;15.85;;;7.93;;
79414;SDS011;68864;44.972;19.612;2024-02-26T01:25:47;17.17;;;8.55;;
79414;SDS011;68864;44.972;19.612;2024-02-26T01:28:16;16.88;;;9.05;;
79414;SDS011;68864;44.972;19.612;2024-02-26T01:30:43;13.13;;;8.38;;
79414;SDS011;68864;44.972;19.612;2024-02-26T01:33:09;11.48;;;6.65;;
79414;SDS011;68864;44.972;19.612;2024-02-26T01:35:37;15.27;;;8.35;;
79414;SDS011;68864;44.972;19.612;2024-02-26T01:38:04;17.15;;;9.23;;
79414;SDS011;68864;44.972;19.612;2024-02-26T01:40:31;17.83;;;9.98;;
79414;SDS011;68864;44.972;19.612;2024-02-26T01:42:58;16.67;;;10.05;;
79414;SDS011;68864;44.972;19.612;2024-02-26T01:45:27;18.08;;;9.35;;
79414;SDS011;68864;44.972;19.612;2024-02-26T01:47:54;18.05;;;11.15;;
79414;SDS011;68864;44.972;19.612;2024-02-26T01:50:21;18.60;;;11.50;;
79414;SDS011;68864;44.972;19.612;2024-02-26T01:52:49;18.30;;;9.68;;
79414;SDS011;68864;44.972;19.612;2024-02-26T01:55:17;17.60;;;10.23;;
79414;SDS011;68864;44.972;19.612;2024-02-26T01:57:45;19.48;;;10.93;;
79414;SDS011;68864;44.972;19.612;2024-02-26T02:00:14;21.27;;;10.43;;
79414;SDS011;68864;44.972;19.612;2024-02-26T02:02:44;17.13;;;10.20;;
79414;SDS011;68864;44.972;19.612;2024-02-26T02:05:13;18.00;;;10.88;;
79414;SDS011;68864;44.972;19.612;2024-02-26T02:07:41;22.30;;;11.05;;
79414;SDS011;68864;44.972;19.612;2024-02-26T02:10:09;18.63;;;10.82;;
79414;SDS011;68864;44.972;19.612;2024-02-26T02:12:36;25.30;;;12.88;;
79414;SDS011;68864;44.972;19.612;2024-02-26T02:15:05;28.55;;;14.98;;
79414;SDS011;68864;44.972;19.612;2024-02-26T02:17:33;29.10;;;14.30;;
79414;SDS011;68864;44.972;19.612;2024-02-26T02:20:02;31.50;;;15.45;;
79414;SDS011;68864;44.972;19.612;2024-02-26T02:22:30;28.52;;;16.05;;
79414;SDS011;68864;44.972;19.612;2024-02-26T02:24:58;24.77;;;14.00;;
79414;SDS011;68864;44.972;19.612;2024-02-26T02:27:25;26.23;;;14.32;;
79414;SDS011;68864;44.972;19.612;2024-02-26T02:29:53;30.10;;;14.13;;
79414;SDS011;68864;44.972;19.612;2024-02-26T02:32:20;26.20;;;13.88;;
79414;SDS011;68864;44.972;19.612;2024-02-26T02:34:49;30.20;;;15.52;;
79414;SDS011;68864;44.972;19.612;2024-02-26T02:37:16;33.28;;;17.55;;
79414;SDS011;68864;44.972;19.612;2024-02-26T02:39:44;30.80;;;15.88;;
79414;SDS011;68864;44.972;19.612;2024-02-26T02:42:11;33.47;;;17.58;;
79414;SDS011;68864;44.972;19.612;2024-02-26T02:44:38;36.15;;;17.33;;
79414;SDS011;68864;44.972;19.612;2024-02-26T02:47:05;35.70;;;16.55;;
79414;SDS011;68864;44.972;19.612;2024-02-26T02:49:32;34.40;;;14.68;;
79414;SDS011;68864;44.972;19.612;2024-02-26T02:51:59;33.83;;;15.27;;
79414;SDS011;68864;44.972;19.612;2024-02-26T02:54:26;38.17;;;18.73;;
79414;SDS011;68864;44.972;19.612;2024-02-26T02:56:54;38.13;;;17.98;;
79414;SDS011;68864;44.972;19.612;2024-02-26T02:59:21;34.45;;;17.27;;
79414;SDS011;68864;44.972;19.612;2024-02-26T03:01:48;32.92;;;17.08;;
79414;SDS011;68864;44.972;19.612;2024-02-26T03:04:15;42.05;;;20.40;;
79414;SDS011;68864;44.972;19.612;2024-02-26T03:06:42;42.17;;;20.65;;
79414;SDS011;68864;44.972;19.612;2024-02-26T03:09:09;43.83;;;19.10;;
79414;SDS011;68864;44.972;19.612;2024-02-26T03:11:36;43.05;;;19.55;;
79414;SDS011;68864;44.972;19.612;2024-02-26T03:14:05;40.67;;;19.92;;
79414;SDS011;68864;44.972;19.612;2024-02-26T03:16:32;41.67;;;18.10;;
79414;SDS011;68864;44.972;19.612;2024-02-26T03:23:53;47.03;;;18.48;;
79414;SDS011;68864;44.972;19.612;2024-02-26T03:26:20;51.35;;;22.27;;
79414;SDS011;68864;44.972;19.612;2024-02-26T03:28:47;48.13;;;19.52;;
79414;SDS011;68864;44.972;19.612;2024-02-26T03:31:15;54.83;;;21.35;;
79414;SDS011;68864;44.972;19.612;2024-02-26T03:33:42;39.78;;;18.88;;
79414;SDS011;68864;44.972;19.612;2024-02-26T03:36:09;39.72;;;17.52;;
79414;SDS011;68864;44.972;19.612;2024-02-26T03:38:36;34.20;;;16.33;;
79414;SDS011;68864;44.972;19.612;2024-02-26T03:41:04;40.10;;;17.35;;
79414;SDS011;68864;44.972;19.612;2024-02-26T03:43:31;33.45;;;15.77;;
79414;SDS011;68864;44.972;19.612;2024-02-26T03:45:58;38.67;;;18.92;;
79414;SDS011;68864;44.972;19.612;2024-02-26T03:48:26;32.88;;;15.38;;
79414;SDS011;68864;44.972;19.612;2024-02-26T03:50:53;34.95;;;16.40;;
79414;SDS011;68864;44.972;19.612;2024-02-26T03:53:20;33.03;;;15.43;;
79414;SDS011;68864;44.972;19.612;2024-02-26T03:55:47;32.65;;;17.00;;
79414;SDS011;68864;44.972;19.612;2024-02-26T03:58:14;30.67;;;15.55;;
79414;SDS011;68864;44.972;19.612;2024-02-26T04:00:42;32.33;;;13.60;;
79414;SDS011;68864;44.972;19.612;2024-02-26T04:03:09;38.45;;;17.50;;
79414;SDS011;68864;44.972;19.612;2024-02-26T04:05:37;37.97;;;18.42;;
79414;SDS011;68864;44.972;19.612;2024-02-26T04:08:04;33.78;;;17.10;;
79414;SDS011;68864;44.972;19.612;2024-02-26T04:10:32;33.90;;;15.40;;
79414;SDS011;68864;44.972;19.612;2024-02-26T04:13:00;37.50;;;17.50;;
79414;SDS011;68864;44.972;19.612;2024-02-26T04:15:28;33.80;;;16.23;;
79414;SDS011;68864;44.972;19.612;2024-02-26T04:17:55;37.33;;;18.08;;
79414;SDS011;68864;44.972;19.612;2024-02-26T04:20:22;30.42;;;15.60;;
79414;SDS011;68864;44.972;19.612;2024-02-26T04:22:50;32.13;;;16.38;;
79414;SDS011;68864;44.972;19.612;2024-02-26T04:25:18;36.63;;;17.40;;
79414;SDS011;68864;44.972;19.612;2024-02-26T04:27:45;29.75;;;15.98;;
79414;SDS011;68864;44.972;19.612;2024-02-26T04:30:12;26.20;;;14.27;;
79414;SDS011;68864;44.972;19.612;2024-02-26T04:32:39;30.88;;;17.30;;
79414;SDS011;68864;44.972;19.612;2024-02-26T04:35:06;32.60;;;17.42;;
79414;SDS011;68864;44.972;19.612;2024-02-26T04:37:33;36.05;;;19.00;;
79414;SDS011;68864;44.972;19.612;2024-02-26T04:40:02;32.15;;;16.58;;
79414;SDS011;68864;44.972;19.612;2024-02-26T04:42:29;28.95;;;15.43;;
79414;SDS011;68864;44.972;19.612;2024-02-26T04:44:56;29.75;;;15.75;;
79414;SDS011;68864;44.972;19.612;2024-02-26T04:47:23;31.38;;;17.17;;
79414;SDS011;68864;44.972;19.612;2024-02-26T04:49:50;31.75;;;17.55;;
79414;SDS011;68864;44.972;19.612;2024-02-26T04:52:18;29.73;;;17.60;;
79414;SDS011;68864;44.972;19.612;2024-02-26T04:54:45;32.03;;;18.25;;
79414;SDS011;68864;44.972;19.612;2024-02-26T04:57:13;27.92;;;14.52;;
79414;SDS011;68864;44.972;19.612;2024-02-26T04:59:43;29.17;;;17.08;;
79414;SDS011;68864;44.972;19.612;2024-02-26T05:02:10;32.83;;;19.27;;
79414;SDS011;68864;44.972;19.612;2024-02-26T05:04:37;28.02;;;15.43;;
79414;SDS011;68864;44.972;19.612;2024-02-26T05:07:04;30.63;;;15.73;;
79414;SDS011;68864;44.972;19.612;2024-02-26T05:09:31;28.00;;;16.13;;
79414;SDS011;68864;44.972;19.612;2024-02-26T05:11:58;31.13;;;17.63;;
79414;SDS011;68864;44.972;19.612;2024-02-26T05:14:27;30.35;;;16.95;;
79414;SDS011;68864;44.972;19.612;2024-02-26T05:16:54;26.23;;;14.93;;
79414;SDS011;68864;44.972;19.612;2024-02-26T05:19:21;29.75;;;17.00;;
79414;SDS011;68864;44.972;19.612;2024-02-26T05:21:48;30.08;;;16.23;;
79414;SDS011;68864;44.972;19.612;2024-02-26T05:26:42;34.53;;;19.90;;
79414;SDS011;68864;44.972;19.612;2024-02-26T05:29:09;43.90;;;22.75;;
79414;SDS011;68864;44.972;19.612;2024-02-26T05:31:38;23.05;;;13.30;;
79414;SDS011;68864;44.972;19.612;2024-02-26T05:34:05;23.55;;;13.30;;
79414;SDS011;68864;44.972;19.612;2024-02-26T05:36:31;27.02;;;15.20;;
79414;SDS011;68864;44.972;19.612;2024-02-26T05:41:26;30.40;;;16.67;;
79414;SDS011;68864;44.972;19.612;2024-02-26T05:43:53;27.55;;;15.88;;
79414;SDS011;68864;44.972;19.612;2024-02-26T05:46:20;28.85;;;15.70;;
79414;SDS011;68864;44.972;19.612;2024-02-26T05:48:50;24.75;;;15.50;;
79414;SDS011;68864;44.972;19.612;2024-02-26T05:51:17;38.38;;;20.55;;
79414;SDS011;68864;44.972;19.612;2024-02-26T05:53:44;27.20;;;15.15;;
79414;SDS011;68864;44.972;19.612;2024-02-26T05:58:38;26.35;;;14.27;;
79414;SDS011;68864;44.972;19.612;2024-02-26T06:01:05;27.10;;;16.23;;
79414;SDS011;68864;44.972;19.612;2024-02-26T06:03:32;30.00;;;16.08;;
79414;SDS011;68864;44.972;19.612;2024-02-26T06:06:00;31.33;;;14.40;;
79414;SDS011;68864;44.972;19.612;2024-02-26T06:08:27;29.15;;;14.88;;
79414;SDS011;68864;44.972;19.612;2024-02-26T06:10:54;25.30;;;14.70;;
79414;SDS011;68864;44.972;19.612;2024-02-26T06:13:21;22.50;;;12.70;;
79414;SDS011;68864;44.972;19.612;2024-02-26T06:15:48;26.75;;;15.27;;
79414;SDS011;68864;44.972;19.612;2024-02-26T06:18:15;27.10;;;13.75;;
79414;SDS011;68864;44.972;19.612;2024-02-26T06:20:42;23.42;;;12.90;;
79414;SDS011;68864;44.972;19.612;2024-02-26T06:23:10;28.77;;;14.98;;
79414;SDS011;68864;44.972;19.612;2024-02-26T06:25:37;35.92;;;18.95;;
79414;SDS011;68864;44.972;19.612;2024-02-26T06:28:04;36.63;;;17.25;;
79414;SDS011;68864;44.972;19.612;2024-02-26T06:30:31;32.33;;;16.30;;
79414;SDS011;68864;44.972;19.612;2024-02-26T06:32:58;26.60;;;15.55;;
79414;SDS011;68864;44.972;19.612;2024-02-26T06:35:25;32.63;;;15.43;;
79414;SDS011;68864;44.972;19.612;2024-02-26T06:37:53;34.55;;;16.40;;
79414;SDS011;68864;44.972;19.612;2024-02-26T06:40:21;32.38;;;19.05;;
79414;SDS011;68864;44.972;19.612;2024-02-26T06:42:48;36.08;;;18.30;;
79414;SDS011;68864;44.972;19.612;2024-02-26T06:45:15;31.50;;;16.95;;
79414;SDS011;68864;44.972;19.612;2024-02-26T06:47:42;31.75;;;16.60;;
79414;SDS011;68864;44.972;19.612;2024-02-26T06:50:11;32.08;;;16.05;;
79414;SDS011;68864;44.972;19.612;2024-02-26T06:52:39;37.17;;;16.90;;
79414;SDS011;68864;44.972;19.612;2024-02-26T06:55:06;36.45;;;17.25;;
79414;SDS011;68864;44.972;19.612;2024-02-26T06:57:35;33.92;;;15.75;;
79414;SDS011;68864;44.972;19.612;2024-02-26T07:00:02;30.25;;;15.23;;
79414;SDS011;68864;44.972;19.612;2024-02-26T07:02:30;25.17;;;14.13;;
79414;SDS011;68864;44.972;19.612;2024-02-26T07:04:57;27.65;;;13.75;;
79414;SDS011;68864;44.972;19.612;2024-02-26T07:07:24;30.27;;;14.23;;
79414;SDS011;68864;44.972;19.612;2024-02-26T07:09:51;38.05;;;14.85;;
79414;SDS011;68864;44.972;19.612;2024-02-26T07:12:17;30.13;;;15.90;;
79414;SDS011;68864;44.972;19.612;2024-02-26T07:14:47;32.83;;;16.52;;
79414;SDS011;68864;44.972;19.612;2024-02-26T07:17:15;31.50;;;14.93;;
79414;SDS011;68864;44.972;19.612;2024-02-26T07:19:42;34.25;;;16.50;;
79414;SDS011;68864;44.972;19.612;2024-02-26T07:22:09;33.50;;;17.02;;
79414;SDS011;68864;44.972;19.612;2024-02-26T07:24:36;32.10;;;16.58;;
79414;SDS011;68864;44.972;19.612;2024-02-26T07:27:03;38.60;;;18.00;;
79414;SDS011;68864;44.972;19.612;2024-02-26T07:29:30;29.77;;;16.77;;
79414;SDS011;68864;44.972;19.612;2024-02-26T07:31:58;29.85;;;15.63;;
79414;SDS011;68864;44.972;19.612;2024-02-26T07:34:25;39.33;;;19.25;;
79414;SDS011;68864;44.972;19.612;2024-02-26T07:36:54;24.45;;;14.27;;
79414;SDS011;68864;44.972;19.612;2024-02-26T07:39:21;29.40;;;16.60;;
79414;SDS011;68864;44.972;19.612;2024-02-26T07:41:48;25.15;;;14.07;;
79414;SDS011;68864;44.972;19.612;2024-02-26T07:44:17;27.90;;;16.85;;
79414;SDS011;68864;44.972;19.612;2024-02-26T07:46:44;27.58;;;16.17;;
79414;SDS011;68864;44.972;19.612;2024-02-26T07:49:12;27.33;;;16.08;;
79414;SDS011;68864;44.972;19.612;2024-02-26T07:51:39;29.50;;;14.77;;
79414;SDS011;68864;44.972;19.612;2024-02-26T07:54:06;27.70;;;15.45;;
79414;SDS011;68864;44.972;19.612;2024-02-26T07:56:33;22.80;;;13.70;;
79414;SDS011;68864;44.972;19.612;2024-02-26T07:59:00;26.83;;;13.30;;
79414;SDS011;68864;44.972;19.612;2024-02-26T08:01:26;26.23;;;14.23;;
79414;SDS011;68864;44.972;19.612;2024-02-26T08:03:53;26.90;;;14.70;;
79414;SDS011;68864;44.972;19.612;2024-02-26T08:06:23;22.85;;;12.70;;
79414;SDS011;68864;44.972;19.612;2024-02-26T08:08:50;28.88;;;13.88;;
79414;SDS011;68864;44.972;19.612;2024-02-26T08:11:17;25.83;;;14.43;;
79414;SDS011;68864;44.972;19.612;2024-02-26T08:13:44;25.35;;;13.52;;
79414;SDS011;68864;44.972;19.612;2024-02-26T08:16:11;28.75;;;12.82;;
79414;SDS011;68864;44.972;19.612;2024-02-26T08:18:38;23.40;;;13.30;;
79414;SDS011;68864;44.972;19.612;2024-02-26T08:21:05;23.17;;;12.85;;
79414;SDS011;68864;44.972;19.612;2024-02-26T08:23:35;24.02;;;11.70;;
79414;SDS011;68864;44.972;19.612;2024-02-26T08:26:02;18.88;;;11.63;;
79414;SDS011;68864;44.972;19.612;2024-02-26T08:28:32;19.20;;;9.57;;
79414;SDS011;68864;44.972;19.612;2024-02-26T08:30:59;19.00;;;12.88;;
79414;SDS011;68864;44.972;19.612;2024-02-26T08:33:26;24.90;;;14.30;;
79414;SDS011;68864;44.972;19.612;2024-02-26T08:35:53;19.90;;;10.18;;
79414;SDS011;68864;44.972;19.612;2024-02-26T08:38:19;17.65;;;9.77;;
79414;SDS011;68864;44.972;19.612;2024-02-26T08:40:48;18.00;;;10.25;;
79414;SDS011;68864;44.972;19.612;2024-02-26T08:43:15;17.17;;;11.45;;
79414;SDS011;68864;44.972;19.612;2024-02-26T08:45:42;17.30;;;10.70;;
79414;SDS011;68864;44.972;19.612;2024-02-26T08:48:09;17.75;;;11.02;;
79414;SDS011;68864;44.972;19.612;2024-02-26T08:53:03;14.38;;;9.23;;
79414;SDS011;68864;44.972;19.612;2024-02-26T08:55:30;14.02;;;9.85;;
79414;SDS011;68864;44.972;19.612;2024-02-26T09:00:25;14.35;;;8.75;;
79414;SDS011;68864;44.972;19.612;2024-02-26T09:02:52;15.52;;;8.02;;
79414;SDS011;68864;44.972;19.612;2024-02-26T09:05:19;14.15;;;9.75;;
79414;SDS011;68864;44.972;19.612;2024-02-26T09:07:46;13.95;;;8.60;;
79414;SDS011;68864;44.972;19.612;2024-02-26T09:10:13;17.77;;;9.70;;
79414;SDS011;68864;44.972;19.612;2024-02-26T09:12:40;17.60;;;9.80;;
79414;SDS011;68864;44.972;19.612;2024-02-26T09:15:09;16.58;;;9.40;;
79414;SDS011;68864;44.972;19.612;2024-02-26T09:17:36;15.55;;;10.43;;
79414;SDS011;68864;44.972;19.612;2024-02-26T09:20:03;16.27;;;9.73;;
79414;SDS011;68864;44.972;19.612;2024-02-26T09:22:34;19.45;;;9.70;;
79414;SDS011;68864;44.972;19.612;2024-02-26T09:25:03;17.23;;;9.23;;
79414;SDS011;68864;44.972;19.612;2024-02-26T09:27:31;16.55;;;10.02;;
79414;SDS011;68864;44.972;19.612;2024-02-26T09:29:58;17.30;;;10.05;;
79414;SDS011;68864;44.972;19.612;2024-02-26T09:32:26;14.90;;;9.85;;
79414;SDS011;68864;44.972;19.612;2024-02-26T09:34:53;17.70;;;8.07;;
79414;SDS011;68864;44.972;19.612;2024-02-26T09:37:20;13.90;;;8.60;;
79414;SDS011;68864;44.972;19.612;2024-02-26T09:39:47;15.93;;;10.30;;
79414;SDS011;68864;44.972;19.612;2024-02-26T09:42:14;16.42;;;7.65;;
79414;SDS011;68864;44.972;19.612;2024-02-26T09:44:45;19.15;;;9.65;;
79414;SDS011;68864;44.972;19.612;2024-02-26T09:47:12;14.02;;;9.15;;
79414;SDS011;68864;44.972;19.612;2024-02-26T09:49:43;17.20;;;10.25;;
79414;SDS011;68864;44.972;19.612;2024-02-26T09:52:12;19.17;;;10.48;;
79414;SDS011;68864;44.972;19.612;2024-02-26T09:54:41;16.63;;;10.15;;
79414;SDS011;68864;44.972;19.612;2024-02-26T09:57:13;17.55;;;10.50;;
79414;SDS011;68864;44.972;19.612;2024-02-26T09:59:42;16.77;;;10.23;;
79414;SDS011;68864;44.972;19.612;2024-02-26T10:02:11;16.77;;;9.55;;
79414;SDS011;68864;44.972;19.612;2024-02-26T10:04:39;16.02;;;10.07;;
79414;SDS011;68864;44.972;19.612;2024-02-26T10:07:09;16.27;;;9.20;;
79414;SDS011;68864;44.972;19.612;2024-02-26T10:09:37;19.33;;;9.18;;
79414;SDS011;68864;44.972;19.612;2024-02-26T10:12:04;18.73;;;9.90;;
79414;SDS011;68864;44.972;19.612;2024-02-26T10:14:33;16.33;;;10.63;;
79414;SDS011;68864;44.972;19.612;2024-02-26T10:17:01;19.02;;;11.52;;
79414;SDS011;68864;44.972;19.612;2024-02-26T10:19:29;19.08;;;10.18;;
79414;SDS011;68864;44.972;19.612;2024-02-26T10:21:57;16.38;;;9.38;;
79414;SDS011;68864;44.972;19.612;2024-02-26T10:24:25;16.27;;;9.57;;
79414;SDS011;68864;44.972;19.612;2024-02-26T10:26:53;16.15;;;9.90;;
79414;SDS011;68864;44.972;19.612;2024-02-26T10:29:21;18.15;;;8.68;;
79414;SDS011;68864;44.972;19.612;2024-02-26T10:31:50;20.13;;;7.82;;
79414;SDS011;68864;44.972;19.612;2024-02-26T10:34:18;14.73;;;9.15;;
79414;SDS011;68864;44.972;19.612;2024-02-26T10:36:45;18.05;;;10.90;;
79414;SDS011;68864;44.972;19.612;2024-02-26T10:39:12;18.25;;;9.85;;
79414;SDS011;68864;44.972;19.612;2024-02-26T10:41:41;16.50;;;8.82;;
79414;SDS011;68864;44.972;19.612;2024-02-26T10:44:09;18.90;;;10.02;;
79414;SDS011;68864;44.972;19.612;2024-02-26T10:46:37;17.67;;;9.77;;
79414;SDS011;68864;44.972;19.612;2024-02-26T10:49:04;17.05;;;9.65;;
79414;SDS011;68864;44.972;19.612;2024-02-26T10:51:33;16.23;;;9.82;;
79414;SDS011;68864;44.972;19.612;2024-02-26T10:54:04;19.77;;;9.85;;
79414;SDS011;68864;44.972;19.612;2024-02-26T10:56:33;15.30;;;7.43;;
79414;SDS011;68864;44.972;19.612;2024-02-26T10:59:04;17.95;;;8.20;;
79414;SDS011;68864;44.972;19.612;2024-02-26T11:01:35;12.82;;;7.57;;
79414;SDS011;68864;44.972;19.612;2024-02-26T11:04:03;16.65;;;9.65;;
79414;SDS011;68864;44.972;19.612;2024-02-26T11:06:31;15.27;;;7.93;;
79414;SDS011;68864;44.972;19.612;2024-02-26T11:08:59;15.00;;;9.25;;
79414;SDS011;68864;44.972;19.612;2024-02-26T11:11:27;16.20;;;9.02;;
79414;SDS011;68864;44.972;19.612;2024-02-26T11:13:55;13.23;;;8.82;;
79414;SDS011;68864;44.972;19.612;2024-02-26T11:16:24;14.35;;;8.43;;
79414;SDS011;68864;44.972;19.612;2024-02-26T11:18:53;16.70;;;9.07;;
79414;SDS011;68864;44.972;19.612;2024-02-26T11:21:21;17.33;;;8.68;;
79414;SDS011;68864;44.972;19.612;2024-02-26T11:23:53;14.68;;;8.63;;
79414;SDS011;68864;44.972;19.612;2024-02-26T11:26:20;12.25;;;7.38;;
79414;SDS011;68864;44.972;19.612;2024-02-26T11:28:50;16.45;;;8.30;;
79414;SDS011;68864;44.972;19.612;2024-02-26T11:31:18;14.18;;;6.25;;
79414;SDS011;68864;44.972;19.612;2024-02-26T11:33:54;14.65;;;7.50;;
79414;SDS011;68864;44.972;19.612;2024-02-26T11:36:23;14.15;;;7.30;;
79414;SDS011;68864;44.972;19.612;2024-02-26T11:38:51;16.13;;;9.10;;
79414;SDS011;68864;44.972;19.612;2024-02-26T11:43:50;18.77;;;9.05;;
79414;SDS011;68864;44.972;19.612;2024-02-26T11:49:01;14.20;;;6.85;;
79414;SDS011;68864;44.972;19.612;2024-02-26T11:51:32;14.43;;;7.43;;
79414;SDS011;68864;44.972;19.612;2024-02-26T11:54:00;21.20;;;7.78;;
79414;SDS011;68864;44.972;19.612;2024-02-26T11:56:27;11.38;;;5.55;;
79414;SDS011;68864;44.972;19.612;2024-02-26T11:58:58;12.32;;;6.65;;
79414;SDS011;68864;44.972;19.612;2024-02-26T12:01:36;14.95;;;8.23;;
79414;SDS011;68864;44.972;19.612;2024-02-26T12:04:05;10.70;;;6.70;;
79414;SDS011;68864;44.972;19.612;2024-02-26T12:06:40;14.60;;;8.10;;
79414;SDS011;68864;44.972;19.612;2024-02-26T12:09:08;15.82;;;6.82;;
79414;SDS011;68864;44.972;19.612;2024-02-26T12:11:37;9.73;;;5.10;;
79414;SDS011;68864;44.972;19.612;2024-02-26T12:14:05;11.52;;;4.13;;
79414;SDS011;68864;44.972;19.612;2024-02-26T12:16:37;15.10;;;5.97;;
79414;SDS011;68864;44.972;19.612;2024-02-26T12:19:06;11.35;;;5.63;;
79414;SDS011;68864;44.972;19.612;2024-02-26T12:21:34;16.35;;;7.15;;
79414;SDS011;68864;44.972;19.612;2024-02-26T12:24:11;12.07;;;6.10;;
79414;SDS011;68864;44.972;19.612;2024-02-26T12:26:41;8.90;;;4.95;;
79414;SDS011;68864;44.972;19.612;2024-02-26T12:29:08;10.23;;;5.13;;
79414;SDS011;68864;44.972;19.612;2024-02-26T12:31:36;11.20;;;3.95;;
79414;SDS011;68864;44.972;19.612;2024-02-26T12:34:04;7.88;;;3.78;;
79414;SDS011;68864;44.972;19.612;2024-02-26T12:36:34;7.78;;;4.20;;
79414;SDS011;68864;44.972;19.612;2024-02-26T12:39:01;9.55;;;3.10;;
79414;SDS011;68864;44.972;19.612;2024-02-26T12:41:30;9.75;;;3.90;;
79414;SDS011;68864;44.972;19.612;2024-02-26T12:46:24;9.90;;;3.20;;
79414;SDS011;68864;44.972;19.612;2024-02-26T12:48:51;8.02;;;3.42;;
79414;SDS011;68864;44.972;19.612;2024-02-26T12:51:20;10.13;;;3.08;;
79414;SDS011;68864;44.972;19.612;2024-02-26T12:53:48;5.65;;;2.50;;
79414;SDS011;68864;44.972;19.612;2024-02-26T12:56:17;6.93;;;1.90;;
79414;SDS011;68864;44.972;19.612;2024-02-26T12:58:44;5.70;;;1.85;;
79414;SDS011;68864;44.972;19.612;2024-02-26T13:01:14;6.75;;;1.55;;
79414;SDS011;68864;44.972;19.612;2024-02-26T13:03:42;5.43;;;1.20;;
79414;SDS011;68864;44.972;19.612;2024-02-26T13:06:10;6.85;;;2.80;;
79414;SDS011;68864;44.972;19.612;2024-02-26T13:08:39;6.32;;;1.38;;
79414;SDS011;68864;44.972;19.612;2024-02-26T13:11:05;6.20;;;1.80;;
79414;SDS011;68864;44.972;19.612;2024-02-26T13:13:34;6.32;;;1.73;;
79414;SDS011;68864;44.972;19.612;2024-02-26T13:16:02;5.22;;;1.42;;
79414;SDS011;68864;44.972;19.612;2024-02-26T13:18:31;5.10;;;1.92;;
79414;SDS011;68864;44.972;19.612;2024-02-26T13:23:39;5.63;;;1.80;;
79414;SDS011;68864;44.972;19.612;2024-02-26T13:26:07;7.63;;;1.90;;
79414;SDS011;68864;44.972;19.612;2024-02-26T13:28:34;11.23;;;1.95;;
79414;SDS011;68864;44.972;19.612;2024-02-26T13:33:29;6.22;;;1.33;;
79414;SDS011;68864;44.972;19.612;2024-02-26T13:35:57;6.25;;;2.83;;
79414;SDS011;68864;44.972;19.612;2024-02-26T13:38:25;6.88;;;2.28;;
79414;SDS011;68864;44.972;19.612;2024-02-26T13:40:54;7.90;;;2.47;;
79414;SDS011;68864;44.972;19.612;2024-02-26T13:43:22;6.05;;;1.35;;
79414;SDS011;68864;44.972;19.612;2024-02-26T13:45:49;6.47;;;1.52;;
79414;SDS011;68864;44.972;19.612;2024-02-26T13:48:16;9.43;;;2.63;;
79414;SDS011;68864;44.972;19.612;2024-02-26T13:50:43;4.85;;;1.75;;
79414;SDS011;68864;44.972;19.612;2024-02-26T13:53:11;4.38;;;1.30;;
79414;SDS011;68864;44.972;19.612;2024-02-26T13:55:39;5.25;;;1.65;;
79414;SDS011;68864;44.972;19.612;2024-02-26T13:58:10;6.70;;;1.55;;
79414;SDS011;68864;44.972;19.612;2024-02-26T14:00:39;5.28;;;1.25;;
79414;SDS011;68864;44.972;19.612;2024-02-26T14:03:06;10.10;;;1.52;;
79414;SDS011;68864;44.972;19.612;2024-02-26T14:05:33;7.57;;;2.38;;
79414;SDS011;68864;44.972;19.612;2024-02-26T14:10:27;7.90;;;1.92;;
79414;SDS011;68864;44.972;19.612;2024-02-26T14:12:54;7.70;;;2.13;;
79414;SDS011;68864;44.972;19.612;2024-02-26T14:15:22;7.90;;;1.42;;
79414;SDS011;68864;44.972;19.612;2024-02-26T14:17:50;10.45;;;1.60;;
79414;SDS011;68864;44.972;19.612;2024-02-26T14:20:21;7.05;;;1.08;;
79414;SDS011;68864;44.972;19.612;2024-02-26T14:22:48;6.88;;;1.50;;
79414;SDS011;68864;44.972;19.612;2024-02-26T14:25:16;6.13;;;2.47;;
79414;SDS011;68864;44.972;19.612;2024-02-26T14:27:43;4.03;;;1.15;;
79414;SDS011;68864;44.972;19.612;2024-02-26T14:32:38;4.45;;;1.45;;
79414;SDS011;68864;44.972;19.612;2024-02-26T14:35:06;5.60;;;1.75;;
79414;SDS011;68864;44.972;19.612;2024-02-26T14:37:34;9.10;;;1.88;;
79414;SDS011;68864;44.972;19.612;2024-02-26T14:42:28;5.22;;;1.17;;
79414;SDS011;68864;44.972;19.612;2024-02-26T14:44:55;6.03;;;1.42;;
79414;SDS011;68864;44.972;19.612;2024-02-26T14:47:22;5.00;;;1.73;;
79414;SDS011;68864;44.972;19.612;2024-02-26T14:49:50;6.60;;;2.70;;
79414;SDS011;68864;44.972;19.612;2024-02-26T14:52:17;7.53;;;1.67;;
79414;SDS011;68864;44.972;19.612;2024-02-26T14:54:44;8.00;;;2.50;;
79414;SDS011;68864;44.972;19.612;2024-02-26T14:59:38;7.32;;;2.55;;
79414;SDS011;68864;44.972;19.612;2024-02-26T15:02:05;7.28;;;2.60;;